sensor_id;sensor_type;location;lat;lon;timestamp;temperature;humidity
4677;DHT22;2352;48.180;11.478;2024-02-21T00:04:20;6.90;63.00
4677;DHT22;2352;48.180;11.478;2024-02-21T00:09:23;6.90;63.10
4677;DHT22;2352;48.180;11.478;2024-02-21T00:14:28;7.00;63.10
4677;DHT22;2352;48.180;11.478;2024-02-21T00:19:30;6.90;63.10
4677;DHT22;2352;48.180;11.478;2024-02-21T00:24:33;6.90;63.30
4677;DHT22;2352;48.180;11.478;2024-02-21T00:29:38;7.00;63.00
4677;DHT22;2352;48.180;11.478;2024-02-21T00:34:40;6.90;63.20
4677;DHT22;2352;48.180;11.478;2024-02-21T00:39:43;7.00;63.10
4677;DHT22;2352;48.180;11.478;2024-02-21T00:44:48;6.90;63.40
4677;DHT22;2352;48.180;11.478;2024-02-21T00:49:51;6.90;64.10
4677;DHT22;2352;48.180;11.478;2024-02-21T00:54:54;7.00;63.30
4677;DHT22;2352;48.180;11.478;2024-02-21T00:59:58;6.90;63.70
4677;DHT22;2352;48.180;11.478;2024-02-21T01:05:02;7.10;63.30
4677;DHT22;2352;48.180;11.478;2024-02-21T01:10:06;6.80;64.10
4677;DHT22;2352;48.180;11.478;2024-02-21T01:15:11;6.90;64.30
4677;DHT22;2352;48.180;11.478;2024-02-21T01:20:14;6.80;64.60
4677;DHT22;2352;48.180;11.478;2024-02-21T01:25:17;6.90;64.30
4677;DHT22;2352;48.180;11.478;2024-02-21T01:30:21;6.90;65.00
4677;DHT22;2352;48.180;11.478;2024-02-21T01:35:25;6.90;64.90
4677;DHT22;2352;48.180;11.478;2024-02-21T01:40:28;7.00;64.90
4677;DHT22;2352;48.180;11.478;2024-02-21T01:45:32;6.80;65.40
4677;DHT22;2352;48.180;11.478;2024-02-21T01:50:35;6.80;65.40
4677;DHT22;2352;48.180;11.478;2024-02-21T01:55:38;6.90;65.40
4677;DHT22;2352;48.180;11.478;2024-02-21T02:00:47;6.80;65.10
4677;DHT22;2352;48.180;11.478;2024-02-21T02:05:50;6.70;65.30
4677;DHT22;2352;48.180;11.478;2024-02-21T02:10:54;6.80;65.10
4677;DHT22;2352;48.180;11.478;2024-02-21T02:15:58;6.80;65.10
4677;DHT22;2352;48.180;11.478;2024-02-21T02:21:02;6.70;65.50
4677;DHT22;2352;48.180;11.478;2024-02-21T02:26:07;6.90;65.30
4677;DHT22;2352;48.180;11.478;2024-02-21T02:31:10;6.80;65.50
4677;DHT22;2352;48.180;11.478;2024-02-21T02:36:13;6.80;65.70
4677;DHT22;2352;48.180;11.478;2024-02-21T02:41:17;6.80;65.60
4677;DHT22;2352;48.180;11.478;2024-02-21T02:46:20;6.90;65.40
4677;DHT22;2352;48.180;11.478;2024-02-21T02:51:23;6.90;65.40
4677;DHT22;2352;48.180;11.478;2024-02-21T02:56:28;6.80;65.50
4677;DHT22;2352;48.180;11.478;2024-02-21T03:01:33;6.80;65.30
4677;DHT22;2352;48.180;11.478;2024-02-21T03:06:36;6.80;65.50
4677;DHT22;2352;48.180;11.478;2024-02-21T03:11:41;6.80;65.40
4677;DHT22;2352;48.180;11.478;2024-02-21T03:16:45;6.70;65.70
4677;DHT22;2352;48.180;11.478;2024-02-21T03:21:48;6.80;65.80
4677;DHT22;2352;48.180;11.478;2024-02-21T03:26:53;6.90;65.10
4677;DHT22;2352;48.180;11.478;2024-02-21T03:31:56;6.80;65.80
4677;DHT22;2352;48.180;11.478;2024-02-21T03:36:59;6.90;65.80
4677;DHT22;2352;48.180;11.478;2024-02-21T03:42:04;6.90;65.50
4677;DHT22;2352;48.180;11.478;2024-02-21T03:47:07;7.00;65.30
4677;DHT22;2352;48.180;11.478;2024-02-21T03:52:12;6.80;65.40
4677;DHT22;2352;48.180;11.478;2024-02-21T03:57:16;7.00;65.00
4677;DHT22;2352;48.180;11.478;2024-02-21T04:02:20;6.80;65.30
4677;DHT22;2352;48.180;11.478;2024-02-21T04:07:23;6.90;65.00
4677;DHT22;2352;48.180;11.478;2024-02-21T04:12:27;6.90;65.00
4677;DHT22;2352;48.180;11.478;2024-02-21T04:17:30;6.90;64.90
4677;DHT22;2352;48.180;11.478;2024-02-21T04:22:33;6.80;65.30
4677;DHT22;2352;48.180;11.478;2024-02-21T04:27:38;6.80;65.10
4677;DHT22;2352;48.180;11.478;2024-02-21T04:32:41;6.50;65.40
4677;DHT22;2352;48.180;11.478;2024-02-21T04:37:44;6.60;65.60
4677;DHT22;2352;48.180;11.478;2024-02-21T04:42:48;6.60;65.50
4677;DHT22;2352;48.180;11.478;2024-02-21T04:47:51;6.70;65.40
4677;DHT22;2352;48.180;11.478;2024-02-21T04:52:54;6.60;65.50
4677;DHT22;2352;48.180;11.478;2024-02-21T04:57:58;6.70;65.50
4677;DHT22;2352;48.180;11.478;2024-02-21T05:03:04;6.80;65.30
4677;DHT22;2352;48.180;11.478;2024-02-21T05:08:07;6.80;65.40
4677;DHT22;2352;48.180;11.478;2024-02-21T05:13:11;6.70;65.50
4677;DHT22;2352;48.180;11.478;2024-02-21T05:18:14;6.80;65.40
4677;DHT22;2352;48.180;11.478;2024-02-21T05:23:18;6.80;65.30
4677;DHT22;2352;48.180;11.478;2024-02-21T05:28:22;6.80;65.20
4677;DHT22;2352;48.180;11.478;2024-02-21T05:33:25;6.60;65.40
4677;DHT22;2352;48.180;11.478;2024-02-21T05:38:28;6.60;65.30
4677;DHT22;2352;48.180;11.478;2024-02-21T05:43:32;6.60;65.40
4677;DHT22;2352;48.180;11.478;2024-02-21T05:48:35;6.50;65.40
4677;DHT22;2352;48.180;11.478;2024-02-21T05:53:40;6.60;65.30
4677;DHT22;2352;48.180;11.478;2024-02-21T05:58:45;6.50;65.20
4677;DHT22;2352;48.180;11.478;2024-02-21T06:03:48;6.30;65.70
4677;DHT22;2352;48.180;11.478;2024-02-21T06:08:50;6.50;65.00
4677;DHT22;2352;48.180;11.478;2024-02-21T06:13:55;6.40;65.20
4677;DHT22;2352;48.180;11.478;2024-02-21T06:18:58;6.40;65.00
4677;DHT22;2352;48.180;11.478;2024-02-21T06:24:01;6.30;65.00
4677;DHT22;2352;48.180;11.478;2024-02-21T06:29:05;6.50;64.40
4677;DHT22;2352;48.180;11.478;2024-02-21T06:34:08;6.50;64.50
4677;DHT22;2352;48.180;11.478;2024-02-21T06:39:11;6.60;63.60
4677;DHT22;2352;48.180;11.478;2024-02-21T06:44:16;6.50;63.60
4677;DHT22;2352;48.180;11.478;2024-02-21T06:49:19;6.50;63.80
4677;DHT22;2352;48.180;11.478;2024-02-21T06:54:21;6.40;63.40
4677;DHT22;2352;48.180;11.478;2024-02-21T06:59:26;6.60;63.20
4677;DHT22;2352;48.180;11.478;2024-02-21T07:04:29;6.70;62.80
4677;DHT22;2352;48.180;11.478;2024-02-21T07:09:32;6.70;62.30
4677;DHT22;2352;48.180;11.478;2024-02-21T07:14:37;6.70;62.30
4677;DHT22;2352;48.180;11.478;2024-02-21T07:19:40;6.80;61.90
4677;DHT22;2352;48.180;11.478;2024-02-21T07:24:43;6.70;61.80
4677;DHT22;2352;48.180;11.478;2024-02-21T07:29:48;6.60;62.00
4677;DHT22;2352;48.180;11.478;2024-02-21T07:34:51;6.70;61.80
4677;DHT22;2352;48.180;11.478;2024-02-21T07:39:54;6.90;62.50
4677;DHT22;2352;48.180;11.478;2024-02-21T07:44:58;6.90;61.50
4677;DHT22;2352;48.180;11.478;2024-02-21T07:50:01;7.10;61.00
4677;DHT22;2352;48.180;11.478;2024-02-21T07:55:05;7.10;61.60
4677;DHT22;2352;48.180;11.478;2024-02-21T08:00:10;7.40;60.40
4677;DHT22;2352;48.180;11.478;2024-02-21T08:05:19;7.40;60.70
4677;DHT22;2352;48.180;11.478;2024-02-21T08:10:22;7.40;60.60
4677;DHT22;2352;48.180;11.478;2024-02-21T08:15:27;7.60;59.50
4677;DHT22;2352;48.180;11.478;2024-02-21T08:20:31;7.80;59.20
4677;DHT22;2352;48.180;11.478;2024-02-21T08:25:34;7.90;59.30
4677;DHT22;2352;48.180;11.478;2024-02-21T08:30:38;8.10;58.30
4677;DHT22;2352;48.180;11.478;2024-02-21T08:35:41;8.30;57.70
4677;DHT22;2352;48.180;11.478;2024-02-21T08:40:44;8.40;57.60
4677;DHT22;2352;48.180;11.478;2024-02-21T08:45:49;8.60;55.90
4677;DHT22;2352;48.180;11.478;2024-02-21T08:50:51;8.40;57.00
4677;DHT22;2352;48.180;11.478;2024-02-21T08:55:56;8.70;56.20
4677;DHT22;2352;48.180;11.478;2024-02-21T09:01:00;8.80;55.50
4677;DHT22;2352;48.180;11.478;2024-02-21T09:06:04;9.00;55.80
4677;DHT22;2352;48.180;11.478;2024-02-21T09:11:09;9.20;55.90
4677;DHT22;2352;48.180;11.478;2024-02-21T09:16:13;9.30;54.90
4677;DHT22;2352;48.180;11.478;2024-02-21T09:21:17;9.40;54.50
4677;DHT22;2352;48.180;11.478;2024-02-21T09:26:19;9.40;54.80
4677;DHT22;2352;48.180;11.478;2024-02-21T09:31:24;9.70;54.40
4677;DHT22;2352;48.180;11.478;2024-02-21T09:36:26;9.90;54.00
4677;DHT22;2352;48.180;11.478;2024-02-21T09:41:30;10.10;53.90
4677;DHT22;2352;48.180;11.478;2024-02-21T09:46:42;10.50;53.70
4677;DHT22;2352;48.180;11.478;2024-02-21T09:51:49;10.90;53.40
4677;DHT22;2352;48.180;11.478;2024-02-21T09:56:53;11.00;52.40
4677;DHT22;2352;48.180;11.478;2024-02-21T10:01:58;11.40;53.40
4677;DHT22;2352;48.180;11.478;2024-02-21T10:07:03;11.70;51.80
4677;DHT22;2352;48.180;11.478;2024-02-21T10:12:09;11.70;49.80
4677;DHT22;2352;48.180;11.478;2024-02-21T10:17:17;12.00;50.20
4677;DHT22;2352;48.180;11.478;2024-02-21T10:22:22;12.10;49.90
4677;DHT22;2352;48.180;11.478;2024-02-21T10:27:25;12.20;48.60
4677;DHT22;2352;48.180;11.478;2024-02-21T10:32:29;12.40;49.70
4677;DHT22;2352;48.180;11.478;2024-02-21T10:37:32;12.80;49.60
4677;DHT22;2352;48.180;11.478;2024-02-21T10:42:37;12.90;47.70
4677;DHT22;2352;48.180;11.478;2024-02-21T10:47:45;13.10;48.80
4677;DHT22;2352;48.180;11.478;2024-02-21T10:52:59;13.50;47.80
4677;DHT22;2352;48.180;11.478;2024-02-21T10:58:06;13.70;47.00
4677;DHT22;2352;48.180;11.478;2024-02-21T11:03:10;13.70;45.70
4677;DHT22;2352;48.180;11.478;2024-02-21T11:08:14;14.00;45.90
4677;DHT22;2352;48.180;11.478;2024-02-21T11:13:18;14.10;44.90
4677;DHT22;2352;48.180;11.478;2024-02-21T11:18:25;14.30;43.90
4677;DHT22;2352;48.180;11.478;2024-02-21T11:23:29;14.60;43.00
4677;DHT22;2352;48.180;11.478;2024-02-21T11:28:32;14.60;42.70
4677;DHT22;2352;48.180;11.478;2024-02-21T11:33:39;14.60;42.90
4677;DHT22;2352;48.180;11.478;2024-02-21T11:38:42;14.80;43.70
4677;DHT22;2352;48.180;11.478;2024-02-21T11:43:45;14.60;42.30
4677;DHT22;2352;48.180;11.478;2024-02-21T11:48:49;14.60;42.50
4677;DHT22;2352;48.180;11.478;2024-02-21T11:53:53;14.70;42.60
4677;DHT22;2352;48.180;11.478;2024-02-21T11:59:03;14.70;41.80
4677;DHT22;2352;48.180;11.478;2024-02-21T12:04:10;14.90;41.00
4677;DHT22;2352;48.180;11.478;2024-02-21T12:09:14;15.20;41.60
4677;DHT22;2352;48.180;11.478;2024-02-21T12:14:17;15.10;40.30
4677;DHT22;2352;48.180;11.478;2024-02-21T12:19:22;15.20;39.20
4677;DHT22;2352;48.180;11.478;2024-02-21T12:24:27;15.50;40.20
4677;DHT22;2352;48.180;11.478;2024-02-21T12:29:30;15.60;38.80
4677;DHT22;2352;48.180;11.478;2024-02-21T12:34:35;15.90;37.90
4677;DHT22;2352;48.180;11.478;2024-02-21T12:39:54;16.00;38.00
4677;DHT22;2352;48.180;11.478;2024-02-21T12:44:57;16.10;37.00
4677;DHT22;2352;48.180;11.478;2024-02-21T12:50:01;16.20;37.20
4677;DHT22;2352;48.180;11.478;2024-02-21T12:55:06;16.40;37.60
4677;DHT22;2352;48.180;11.478;2024-02-21T13:00:10;16.70;37.50
4677;DHT22;2352;48.180;11.478;2024-02-21T13:05:14;16.90;38.20
4677;DHT22;2352;48.180;11.478;2024-02-21T13:10:17;17.00;37.50
4677;DHT22;2352;48.180;11.478;2024-02-21T13:15:20;17.20;37.20
4677;DHT22;2352;48.180;11.478;2024-02-21T13:20:25;17.00;37.10
4677;DHT22;2352;48.180;11.478;2024-02-21T13:25:28;17.20;37.60
4677;DHT22;2352;48.180;11.478;2024-02-21T13:30:31;17.40;38.70
4677;DHT22;2352;48.180;11.478;2024-02-21T13:35:36;17.50;36.70
4677;DHT22;2352;48.180;11.478;2024-02-21T13:40:40;17.50;37.20
4677;DHT22;2352;48.180;11.478;2024-02-21T13:45:55;17.50;36.60
4677;DHT22;2352;48.180;11.478;2024-02-21T13:50:59;17.70;36.80
4677;DHT22;2352;48.180;11.478;2024-02-21T13:56:04;17.80;36.50
4677;DHT22;2352;48.180;11.478;2024-02-21T14:01:07;18.00;36.50
4677;DHT22;2352;48.180;11.478;2024-02-21T14:06:12;18.00;36.80
4677;DHT22;2352;48.180;11.478;2024-02-21T14:11:15;17.90;36.60
4677;DHT22;2352;48.180;11.478;2024-02-21T14:16:18;18.00;36.60
4677;DHT22;2352;48.180;11.478;2024-02-21T14:21:23;18.00;36.60
4677;DHT22;2352;48.180;11.478;2024-02-21T14:26:26;18.00;36.90
4677;DHT22;2352;48.180;11.478;2024-02-21T14:31:30;18.00;36.20
4677;DHT22;2352;48.180;11.478;2024-02-21T14:36:35;17.60;36.80
4677;DHT22;2352;48.180;11.478;2024-02-21T14:41:38;17.80;37.80
4677;DHT22;2352;48.180;11.478;2024-02-21T14:46:41;17.90;36.50
4677;DHT22;2352;48.180;11.478;2024-02-21T14:51:45;17.70;36.60
4677;DHT22;2352;48.180;11.478;2024-02-21T14:56:48;17.80;37.80
4677;DHT22;2352;48.180;11.478;2024-02-21T15:01:51;17.70;36.90
4677;DHT22;2352;48.180;11.478;2024-02-21T15:06:56;17.60;37.50
4677;DHT22;2352;48.180;11.478;2024-02-21T15:11:58;17.90;37.40
4677;DHT22;2352;48.180;11.478;2024-02-21T15:17:01;17.70;37.90
4677;DHT22;2352;48.180;11.478;2024-02-21T15:22:06;17.20;38.40
4677;DHT22;2352;48.180;11.478;2024-02-21T15:27:09;16.50;39.60
4677;DHT22;2352;48.180;11.478;2024-02-21T15:32:12;16.20;41.30
4677;DHT22;2352;48.180;11.478;2024-02-21T15:37:16;16.00;40.60
4677;DHT22;2352;48.180;11.478;2024-02-21T15:42:19;15.90;41.50
4677;DHT22;2352;48.180;11.478;2024-02-21T15:47:22;15.80;44.40
4677;DHT22;2352;48.180;11.478;2024-02-21T15:52:26;15.60;41.40
4677;DHT22;2352;48.180;11.478;2024-02-21T15:57:29;15.40;43.80
4677;DHT22;2352;48.180;11.478;2024-02-21T16:02:34;15.20;44.50
4677;DHT22;2352;48.180;11.478;2024-02-21T16:07:38;15.10;45.50
4677;DHT22;2352;48.180;11.478;2024-02-21T16:12:41;14.90;46.60
4677;DHT22;2352;48.180;11.478;2024-02-21T16:17:44;14.80;46.80
4677;DHT22;2352;48.180;11.478;2024-02-21T16:22:48;14.80;48.20
4677;DHT22;2352;48.180;11.478;2024-02-21T16:27:51;14.70;49.00
4677;DHT22;2352;48.180;11.478;2024-02-21T16:32:55;14.60;48.70
4677;DHT22;2352;48.180;11.478;2024-02-21T16:38:00;14.50;48.90
4677;DHT22;2352;48.180;11.478;2024-02-21T16:43:04;14.40;48.70
4677;DHT22;2352;48.180;11.478;2024-02-21T16:48:07;14.20;49.70
4677;DHT22;2352;48.180;11.478;2024-02-21T16:53:12;13.90;50.30
4677;DHT22;2352;48.180;11.478;2024-02-21T16:58:15;13.70;51.40
4677;DHT22;2352;48.180;11.478;2024-02-21T17:03:18;13.70;51.10
4677;DHT22;2352;48.180;11.478;2024-02-21T17:08:24;13.60;50.80
4677;DHT22;2352;48.180;11.478;2024-02-21T17:13:28;13.40;52.00
4677;DHT22;2352;48.180;11.478;2024-02-21T17:18:33;13.40;51.30
4677;DHT22;2352;48.180;11.478;2024-02-21T17:23:37;13.40;52.40
4677;DHT22;2352;48.180;11.478;2024-02-21T17:28:40;13.20;52.30
4677;DHT22;2352;48.180;11.478;2024-02-21T17:33:43;13.10;52.00
4677;DHT22;2352;48.180;11.478;2024-02-21T17:38:48;12.90;52.70
4677;DHT22;2352;48.180;11.478;2024-02-21T17:43:52;12.90;52.70
4677;DHT22;2352;48.180;11.478;2024-02-21T17:48:55;12.70;53.50
4677;DHT22;2352;48.180;11.478;2024-02-21T17:53:59;12.40;53.20
4677;DHT22;2352;48.180;11.478;2024-02-21T17:59:02;12.40;54.00
4677;DHT22;2352;48.180;11.478;2024-02-21T18:04:05;12.40;53.90
4677;DHT22;2352;48.180;11.478;2024-02-21T18:09:10;12.20;54.60
4677;DHT22;2352;48.180;11.478;2024-02-21T18:14:13;12.10;54.70
4677;DHT22;2352;48.180;11.478;2024-02-21T18:19:16;11.90;54.80
4677;DHT22;2352;48.180;11.478;2024-02-21T18:24:22;11.90;55.00
4677;DHT22;2352;48.180;11.478;2024-02-21T18:29:26;11.80;55.00
4677;DHT22;2352;48.180;11.478;2024-02-21T18:34:40;11.50;55.80
4677;DHT22;2352;48.180;11.478;2024-02-21T18:39:45;11.50;55.70
4677;DHT22;2352;48.180;11.478;2024-02-21T18:44:48;11.40;55.30
4677;DHT22;2352;48.180;11.478;2024-02-21T18:49:52;11.40;56.00
4677;DHT22;2352;48.180;11.478;2024-02-21T18:54:56;11.30;56.90
4677;DHT22;2352;48.180;11.478;2024-02-21T19:00:00;11.40;55.90
4677;DHT22;2352;48.180;11.478;2024-02-21T19:05:08;11.30;55.00
4677;DHT22;2352;48.180;11.478;2024-02-21T19:10:13;11.10;56.10
4677;DHT22;2352;48.180;11.478;2024-02-21T19:15:16;11.10;56.30
4677;DHT22;2352;48.180;11.478;2024-02-21T19:20:19;11.10;56.10
4677;DHT22;2352;48.180;11.478;2024-02-21T19:25:23;11.00;56.00
4677;DHT22;2352;48.180;11.478;2024-02-21T19:30:27;10.90;56.50
4677;DHT22;2352;48.180;11.478;2024-02-21T19:35:30;10.90;57.00
4677;DHT22;2352;48.180;11.478;2024-02-21T19:40:35;10.70;56.70
4677;DHT22;2352;48.180;11.478;2024-02-21T19:45:37;10.70;56.30
4677;DHT22;2352;48.180;11.478;2024-02-21T19:50:40;10.80;56.70
4677;DHT22;2352;48.180;11.478;2024-02-21T19:55:45;10.70;56.80
4677;DHT22;2352;48.180;11.478;2024-02-21T20:00:48;10.70;57.20
4677;DHT22;2352;48.180;11.478;2024-02-21T20:05:51;10.60;57.20
4677;DHT22;2352;48.180;11.478;2024-02-21T20:10:55;10.60;57.30
4677;DHT22;2352;48.180;11.478;2024-02-21T20:15:58;10.60;56.80
4677;DHT22;2352;48.180;11.478;2024-02-21T20:21:02;10.60;57.70
4677;DHT22;2352;48.180;11.478;2024-02-21T20:26:06;10.50;57.80
4677;DHT22;2352;48.180;11.478;2024-02-21T20:31:09;10.60;57.70
4677;DHT22;2352;48.180;11.478;2024-02-21T20:36:12;10.60;58.50
4677;DHT22;2352;48.180;11.478;2024-02-21T20:41:18;10.50;58.10
4677;DHT22;2352;48.180;11.478;2024-02-21T20:46:21;10.70;58.70
4677;DHT22;2352;48.180;11.478;2024-02-21T20:51:24;10.70;58.20
4677;DHT22;2352;48.180;11.478;2024-02-21T20:56:29;10.60;58.60
4677;DHT22;2352;48.180;11.478;2024-02-21T21:01:31;10.60;58.00
4677;DHT22;2352;48.180;11.478;2024-02-21T21:06:45;10.50;58.40
4677;DHT22;2352;48.180;11.478;2024-02-21T21:11:49;10.50;57.90
4677;DHT22;2352;48.180;11.478;2024-02-21T21:16:52;10.60;58.70
4677;DHT22;2352;48.180;11.478;2024-02-21T21:21:55;10.60;58.40
4677;DHT22;2352;48.180;11.478;2024-02-21T21:27:02;10.60;58.70
4677;DHT22;2352;48.180;11.478;2024-02-21T21:32:06;10.50;58.40
4677;DHT22;2352;48.180;11.478;2024-02-21T21:37:09;10.60;58.30
4677;DHT22;2352;48.180;11.478;2024-02-21T21:42:13;10.50;58.80
4677;DHT22;2352;48.180;11.478;2024-02-21T21:47:17;10.50;59.20
4677;DHT22;2352;48.180;11.478;2024-02-21T21:52:20;10.50;59.50
4677;DHT22;2352;48.180;11.478;2024-02-21T21:57:24;10.50;58.70
4677;DHT22;2352;48.180;11.478;2024-02-21T22:02:27;10.60;59.10
4677;DHT22;2352;48.180;11.478;2024-02-21T22:07:30;10.50;58.30
4677;DHT22;2352;48.180;11.478;2024-02-21T22:12:34;10.60;57.90
4677;DHT22;2352;48.180;11.478;2024-02-21T22:17:37;10.50;58.20
4677;DHT22;2352;48.180;11.478;2024-02-21T22:22:40;10.60;59.60
4677;DHT22;2352;48.180;11.478;2024-02-21T22:27:44;10.70;58.30
4677;DHT22;2352;48.180;11.478;2024-02-21T22:32:47;10.60;59.90
4677;DHT22;2352;48.180;11.478;2024-02-21T22:37:50;10.50;60.10
4677;DHT22;2352;48.180;11.478;2024-02-21T22:42:55;10.50;60.80
4677;DHT22;2352;48.180;11.478;2024-02-21T22:47:57;10.70;60.40
4677;DHT22;2352;48.180;11.478;2024-02-21T22:53:01;10.60;60.30
4677;DHT22;2352;48.180;11.478;2024-02-21T22:58:05;10.60;60.20
4677;DHT22;2352;48.180;11.478;2024-02-21T23:03:08;10.60;60.80
4677;DHT22;2352;48.180;11.478;2024-02-21T23:08:13;10.60;60.40
4677;DHT22;2352;48.180;11.478;2024-02-21T23:13:17;10.40;61.40
4677;DHT22;2352;48.180;11.478;2024-02-21T23:18:20;10.60;60.70
4677;DHT22;2352;48.180;11.478;2024-02-21T23:23:23;10.50;60.40
4677;DHT22;2352;48.180;11.478;2024-02-21T23:28:27;10.50;60.70
4677;DHT22;2352;48.180;11.478;2024-02-21T23:33:30;10.50;60.50
4677;DHT22;2352;48.180;11.478;2024-02-21T23:38:36;10.50;60.70
4677;DHT22;2352;48.180;11.478;2024-02-21T23:43:42;10.60;61.30
4677;DHT22;2352;48.180;11.478;2024-02-21T23:48:45;10.60;60.80
4677;DHT22;2352;48.180;11.478;2024-02-21T23:53:48;10.50;60.70
4677;DHT22;2352;48.180;11.478;2024-02-21T23:58:52;10.50;61.20
